Time;durP1;ratioP1;P1;durP2;ratioP2;P2;SDS_P1;SDS_P2;PMS_P1;PMS_P2;Temp;Humidity;BMP_temperature;BMP_pressure;BME280_temperature;BME280_humidity;BME280_pressure;Samples;Min_cycle;Max_cycle;Signal;HPM_P1;HPM_P2
2022/10/24 00:02:17;;;;;;;41.50;25.57;;;11.40;99.90;;;;;;4794750;24;20250;-81
2022/10/24 00:04:45;;;;;;;44.70;25.87;;;11.40;99.90;;;;;;4756341;30;20212;-81
2022/10/24 00:07:12;;;;;;;41.17;25.03;;;11.40;99.90;;;;;;4772183;30;20283;-81
2022/10/24 00:09:39;;;;;;;37.20;23.70;;;11.40;99.90;;;;;;4770793;30;20262;-82
2022/10/24 00:12:06;;;;;;;36.90;23.50;;;11.30;99.90;;;;;;4770894;30;20189;-81
2022/10/24 00:14:35;;;;;;;35.70;22.73;;;11.30;99.90;;;;;;4770623;30;20723;-81
2022/10/24 00:17:11;;;;;;;32.70;21.97;;;11.20;99.90;;;;;;4785607;29;20200;-81
2022/10/24 00:19:38;;;;;;;34.77;21.03;;;11.10;99.90;;;;;;4770877;30;20280;-81
2022/10/24 00:22:23;;;;;;;31.30;20.30;;;11.00;99.90;;;;;;4756201;30;20209;-82
2022/10/24 00:25:22;;;;;;;30.80;19.37;;;10.90;99.90;;;;;;4770106;30;20212;-82
2022/10/24 00:27:49;;;;;;;28.43;18.97;;;10.80;99.90;;;;;;4770626;30;20208;-81
2022/10/24 00:30:20;;;;;;;28.83;19.57;;;10.60;99.90;;;;;;4770514;30;20205;-80
2022/10/24 00:33:02;;;;;;;29.00;19.50;;;10.60;99.90;;;;;;4808540;24;20231;-81
2022/10/24 00:35:29;;;;;;;27.83;18.20;;;10.50;99.90;;;;;;4805864;29;20212;-81
2022/10/24 00:38:00;;;;;;;27.63;19.07;;;10.40;99.90;;;;;;4776693;29;20211;-81
2022/10/24 00:40:45;;;;;;;27.80;19.20;;;10.20;99.90;;;;;;4806138;29;20231;-81
2022/10/24 00:43:26;;;;;;;29.37;19.20;;;10.20;99.90;;;;;;4806560;29;20301;-81
2022/10/24 00:46:01;;;;;;;28.77;19.13;;;10.10;99.90;;;;;;4805954;29;20650;-82
2022/10/24 00:48:48;;;;;;;26.77;19.10;;;10.00;99.90;;;;;;4791148;29;20207;-81
2022/10/24 00:51:25;;;;;;;29.57;20.30;;;9.90;99.90;;;;;;4807236;29;20195;-81
2022/10/24 00:53:57;;;;;;;27.83;19.37;;;9.80;99.90;;;;;;4806033;29;20203;-81
2022/10/24 00:56:32;;;;;;;29.20;19.10;;;9.70;99.90;;;;;;4807575;29;20220;-82
2022/10/24 00:59:08;;;;;;;27.43;19.33;;;9.70;99.90;;;;;;4807456;29;20214;-83
2022/10/24 01:11:50;;;;;;;32.03;19.97;;;9.40;99.90;;;;;;4790395;29;20207;-81
2022/10/24 01:15:31;;;;;;;31.77;20.17;;;9.40;99.90;;;;;;4750781;30;20235;-82
2022/10/24 01:18:52;;;;;;;;;;;;;;;;;;;;;
2022/10/24 01:22:09;;;;;;;34.57;20.87;;;9.30;99.90;;;;;;4790512;29;20335;-83
2022/10/24 01:35:52;;;;;;;36.27;22.40;;;9.10;99.90;;;;;;4729070;30;20212;-81
2022/10/24 01:38:52;;;;;;;34.13;21.70;;;9.20;99.90;;;;;;4736121;30;20603;-80
2022/10/24 01:41:29;;;;;;;34.33;21.33;;;9.20;99.90;;;;;;4736004;30;20206;-80
2022/10/24 01:44:27;;;;;;;33.60;20.63;;;9.20;99.90;;;;;;4736108;30;20263;-81
2022/10/24 01:47:30;;;;;;;;;;;;;;;;;;;;;
2022/10/24 01:50:32;;;;;;;36.50;21.30;;;9.20;99.90;;;;;;4758772;29;20616;-80
2022/10/24 01:53:03;;;;;;;37.47;21.83;;;9.30;99.90;;;;;;4788177;30;20281;-81
2022/10/24 01:55:35;;;;;;;38.13;21.60;;;9.30;99.90;;;;;;4771494;30;20281;-84
2022/10/24 01:58:02;;;;;;;38.50;22.87;;;9.30;99.90;;;;;;4814791;24;20244;-82
2022/10/24 02:00:29;;;;;;;36.47;22.80;;;9.30;99.90;;;;;;4804882;29;20254;-82
2022/10/24 02:03:03;;;;;;;39.50;22.73;;;9.30;99.90;;;;;;4806169;29;20187;-80
2022/10/24 02:05:41;;;;;;;35.93;22.40;;;9.30;99.90;;;;;;4804966;29;20832;-81
2022/10/24 02:08:13;;;;;;;36.63;21.73;;;9.30;99.90;;;;;;4790193;29;20195;-81
2022/10/24 02:10:49;;;;;;;35.80;22.30;;;9.30;99.90;;;;;;4804845;29;20215;-81
2022/10/24 02:13:34;;;;;;;35.90;22.07;;;9.30;99.90;;;;;;4818583;24;20247;-81
2022/10/24 02:16:21;;;;;;;35.27;21.63;;;9.30;99.90;;;;;;4767670;30;20217;-81
2022/10/24 02:24:51;;;;;;;33.93;21.27;;;9.30;99.90;;;;;;4838607;24;20344;-82
2022/10/24 02:28:11;;;;;;;36.70;22.37;;;9.30;99.90;;;;;;4784946;29;20308;-83
2022/10/24 02:38:47;;;;;;;34.03;21.20;;;9.20;99.90;;;;;;4697678;30;20485;-81
2022/10/24 02:42:24;;;;;;;39.70;22.03;;;9.30;99.90;;;;;;4700713;30;20576;-83
2022/10/24 02:49:49;;;;;;;;;;;;;;;;;;;;;
2022/10/24 02:52:22;;;;;;;38.80;22.33;;;9.10;99.90;;;;;;4696799;30;20247;-82
2022/10/24 02:55:23;;;;;;;38.73;22.53;;;9.20;99.90;;;;;;4683238;30;20579;-82
2022/10/24 02:58:29;;;;;;;38.37;23.27;;;9.20;99.90;;;;;;4764602;24;20255;-82
2022/10/24 03:01:16;;;;;;;36.47;22.63;;;9.30;99.90;;;;;;4768589;30;20228;-83
2022/10/24 03:03:44;;;;;;;37.50;22.97;;;9.30;99.90;;;;;;4768629;30;20230;-82
2022/10/24 03:06:23;;;;;;;38.27;22.00;;;9.30;99.90;;;;;;4768275;30;20232;-83
2022/10/24 03:09:49;;;;;;;36.30;22.93;;;9.30;99.90;;;;;;4819757;24;20257;-82
2022/10/24 03:15:04;;;;;;;41.13;24.93;;;9.30;99.90;;;;;;4786206;29;20250;-82
2022/10/24 03:17:34;;;;;;;38.30;22.90;;;9.40;99.90;;;;;;4771416;30;20668;-82
2022/10/24 03:20:01;;;;;;;37.10;23.23;;;9.40;99.90;;;;;;4771329;30;20243;-83
2022/10/24 03:22:27;;;;;;;42.03;24.87;;;9.40;99.90;;;;;;4771773;30;20275;-83
2022/10/24 03:25:00;;;;;;;38.97;23.57;;;9.40;99.90;;;;;;4772214;30;20204;-84
2022/10/24 03:27:27;;;;;;;38.40;23.40;;;9.40;99.90;;;;;;4760291;30;20737;-81
2022/10/24 03:29:57;;;;;;;38.47;23.20;;;9.40;99.90;;;;;;4918534;24;20251;-81
2022/10/24 03:32:24;;;;;;;39.00;23.67;;;9.50;99.90;;;;;;4807656;29;20216;-84
2022/10/24 03:34:52;;;;;;;39.23;24.43;;;9.40;99.90;;;;;;4807514;29;20731;-82
2022/10/24 03:37:19;;;;;;;38.43;23.77;;;9.50;99.90;;;;;;4822298;29;20559;-84
2022/10/24 03:39:47;;;;;;;40.93;23.77;;;9.50;99.90;;;;;;4808775;29;20241;-82
2022/10/24 03:42:14;;;;;;;40.37;24.20;;;9.50;99.90;;;;;;4808402;29;20731;-83
2022/10/24 03:44:41;;;;;;;36.63;23.63;;;9.50;99.90;;;;;;4807463;29;20344;-82
2022/10/24 03:47:08;;;;;;;43.87;25.87;;;9.50;99.90;;;;;;4822348;29;20665;-82
2022/10/24 03:49:35;;;;;;;42.40;25.27;;;9.50;99.90;;;;;;4808417;29;20203;-81
2022/10/24 03:52:02;;;;;;;42.17;25.47;;;9.50;99.90;;;;;;4807160;29;20211;-81
2022/10/24 03:54:30;;;;;;;42.53;26.57;;;9.60;99.90;;;;;;4807030;29;20208;-81
2022/10/24 03:56:57;;;;;;;42.63;24.63;;;9.50;99.90;;;;;;4806641;29;20282;-81
2022/10/24 03:59:24;;;;;;;41.80;25.40;;;9.60;99.90;;;;;;4807049;29;20642;-81
2022/10/24 04:01:51;;;;;;;42.53;25.43;;;9.60;99.90;;;;;;4792156;29;20203;-82
2022/10/24 04:04:18;;;;;;;40.03;25.10;;;9.60;99.90;;;;;;4822185;29;20246;-82
2022/10/24 04:06:45;;;;;;;40.53;24.23;;;9.60;99.90;;;;;;4821788;29;20217;-82
2022/10/24 04:09:15;;;;;;;38.63;23.77;;;9.60;99.90;;;;;;4951941;24;20238;-81
2022/10/24 04:11:52;;;;;;;40.77;24.20;;;9.70;99.90;;;;;;4790245;30;20201;-81
2022/10/24 04:14:25;;;;;;;36.03;22.20;;;9.70;99.90;;;;;;4788592;29;20216;-83
2022/10/24 04:20:02;;;;;;;35.47;22.50;;;9.70;99.90;;;;;;4751779;30;20230;-82
2022/10/24 04:22:52;;;;;;;41.20;24.23;;;9.70;99.90;;;;;;4754217;30;20214;-81
2022/10/24 04:25:21;;;;;;;37.30;23.93;;;9.80;99.90;;;;;;4752380;30;20680;-82
2022/10/24 04:28:00;;;;;;;37.63;22.57;;;9.70;99.90;;;;;;4737990;30;20202;-83
2022/10/24 04:30:46;;;;;;;38.43;23.37;;;9.70;99.90;;;;;;4753893;30;20674;-82
2022/10/24 04:33:15;;;;;;;38.27;23.37;;;9.80;99.90;;;;;;4752529;30;20205;-82
2022/10/24 04:35:47;;;;;;;37.23;22.77;;;9.80;99.90;;;;;;4737519;30;20219;-83
2022/10/24 04:38:26;;;;;;;36.57;22.93;;;9.80;99.90;;;;;;4738250;30;20608;-81
2022/10/24 04:41:04;;;;;;;40.33;22.37;;;9.80;99.90;;;;;;4753952;30;20230;-81
2022/10/24 04:43:47;;;;;;;36.40;22.67;;;9.80;99.90;;;;;;4737676;30;20211;-81
2022/10/24 04:46:14;;;;;;;37.63;22.90;;;9.80;99.90;;;;;;4737934;30;20685;-80
2022/10/24 04:48:41;;;;;;;35.23;22.97;;;9.90;99.90;;;;;;4737792;30;20206;-78
2022/10/24 04:51:14;;;;;;;36.73;22.90;;;9.90;99.90;;;;;;4753725;30;20209;-81
2022/10/24 05:18:25;;;;;;;30.57;19.83;;;9.90;99.90;;;;;;6294676;22;20679;-77
2022/10/24 05:20:56;;;;;;;29.73;20.17;;;10.00;99.90;;;;;;6320438;22;20175;-78
2022/10/24 05:23:23;;;;;;;34.17;21.33;;;9.90;99.90;;;;;;6347893;22;20187;-77
2022/10/24 05:25:50;;;;;;;34.27;20.37;;;9.90;99.90;;;;;;6347721;22;20152;-77
2022/10/24 05:28:17;;;;;;;34.17;20.63;;;9.90;99.90;;;;;;6320011;22;20167;-77
2022/10/24 05:30:44;;;;;;;34.57;21.57;;;9.90;99.90;;;;;;6320361;22;20160;-77
2022/10/24 05:33:12;;;;;;;33.40;21.33;;;9.80;99.90;;;;;;6346413;22;20209;-78
2022/10/24 05:35:40;;;;;;;33.23;20.83;;;9.80;99.90;;;;;;6320120;22;20175;-79
2022/10/24 05:38:08;;;;;;;40.93;22.17;;;9.90;99.90;;;;;;6347607;22;20187;-78
2022/10/24 05:40:35;;;;;;;35.83;21.97;;;9.80;99.90;;;;;;6320298;22;20168;-79
2022/10/24 05:43:02;;;;;;;37.40;22.80;;;9.80;99.90;;;;;;6320372;22;20200;-76
2022/10/24 05:45:29;;;;;;;38.00;21.83;;;10.00;99.90;;;;;;6320106;22;20175;-79
2022/10/24 05:47:56;;;;;;;38.23;23.33;;;9.90;99.90;;;;;;6345585;22;20601;-78
2022/10/24 05:50:25;;;;;;;37.80;23.00;;;9.90;99.90;;;;;;6347657;22;20227;-76
2022/10/24 05:52:53;;;;;;;36.63;23.03;;;9.90;99.90;;;;;;6293889;22;20178;-76
2022/10/24 05:55:20;;;;;;;40.53;22.97;;;9.90;99.90;;;;;;6345664;22;20228;-78
2022/10/24 05:57:47;;;;;;;39.43;23.43;;;9.90;99.90;;;;;;6345720;22;20192;-79
2022/10/24 06:00:15;;;;;;;39.53;23.13;;;10.00;99.90;;;;;;6294349;22;20213;-77
2022/10/24 06:02:42;;;;;;;41.90;24.30;;;10.00;99.90;;;;;;6319819;22;20217;-77
2022/10/24 06:05:12;;;;;;;39.00;23.93;;;10.10;99.90;;;;;;6319534;22;20184;-79
2022/10/24 06:07:40;;;;;;;37.27;22.97;;;10.10;99.90;;;;;;6293758;22;20529;-78
2022/10/24 06:10:17;;;;;;;34.77;21.73;;;10.20;99.90;;;;;;6319483;22;20199;-78
2022/10/24 06:12:44;;;;;;;37.97;23.40;;;10.20;99.90;;;;;;6319549;22;20266;-79
2022/10/24 06:15:12;;;;;;;52.40;31.07;;;10.20;99.90;;;;;;6316994;22;20534;-79
2022/10/24 06:17:39;;;;;;;38.47;23.40;;;10.30;99.90;;;;;;6307195;22;20188;-78
2022/10/24 06:20:07;;;;;;;37.33;23.13;;;10.40;99.90;;;;;;6307731;22;20230;-78
2022/10/24 06:22:33;;;;;;;36.53;22.50;;;10.40;99.90;;;;;;6280915;22;20169;-77
2022/10/24 06:25:00;;;;;;;39.40;22.93;;;10.50;99.90;;;;;;6281460;22;20200;-78
2022/10/24 06:27:27;;;;;;;37.43;22.90;;;10.60;99.90;;;;;;6308935;22;20231;-78
2022/10/24 06:29:54;;;;;;;34.53;21.97;;;10.60;99.90;;;;;;6307771;22;20179;-78
2022/10/24 06:32:21;;;;;;;36.87;21.97;;;10.50;99.90;;;;;;6307344;22;20165;-78
2022/10/24 06:34:49;;;;;;;39.37;22.93;;;10.50;99.90;;;;;;6307318;22;20165;-78
2022/10/24 06:37:16;;;;;;;34.37;22.23;;;10.50;99.90;;;;;;6307463;22;20175;-77
2022/10/24 06:39:43;;;;;;;40.60;22.93;;;10.50;99.90;;;;;;6308979;22;20502;-77
2022/10/24 06:42:10;;;;;;;37.60;22.27;;;10.50;99.90;;;;;;6307004;22;20168;-77
2022/10/24 06:44:37;;;;;;;37.10;22.90;;;10.60;99.90;;;;;;6307275;22;20311;-77
2022/10/24 06:47:05;;;;;;;37.87;22.20;;;10.60;99.90;;;;;;6307196;22;20172;-76
2022/10/24 06:49:32;;;;;;;38.83;22.87;;;10.60;99.90;;;;;;6307551;22;20169;-75
2022/10/24 06:51:59;;;;;;;37.13;22.43;;;10.60;99.90;;;;;;6307073;22;20256;-78
2022/10/24 06:54:25;;;;;;;36.37;22.83;;;10.60;99.90;;;;;;6307742;22;20459;-78
2022/10/24 06:56:56;;;;;;;36.20;21.87;;;10.60;99.90;;;;;;6308810;22;20536;-78
2022/10/24 06:59:26;;;;;;;36.40;22.77;;;10.70;99.90;;;;;;6308823;22;20614;-78
2022/10/24 07:01:54;;;;;;;36.20;21.60;;;10.60;99.90;;;;;;6308539;22;20161;-78
2022/10/24 07:04:21;;;;;;;35.03;21.70;;;10.60;99.90;;;;;;6281178;22;20217;-78
2022/10/24 07:06:48;;;;;;;34.93;20.73;;;10.70;99.90;;;;;;6281386;22;20184;-78
2022/10/24 07:09:16;;;;;;;35.13;20.97;;;10.70;99.90;;;;;;6306745;22;20169;-78
2022/10/24 07:11:43;;;;;;;36.60;22.10;;;10.70;99.90;;;;;;6306691;22;20169;-77
2022/10/24 07:14:11;;;;;;;35.63;21.00;;;10.70;99.90;;;;;;6308326;22;20599;-77
2022/10/24 07:16:38;;;;;;;37.07;22.03;;;10.80;99.90;;;;;;6306706;22;20189;-77
2022/10/24 07:19:14;;;;;;;32.30;20.90;;;10.80;99.90;;;;;;6306903;22;20614;-76
2022/10/24 07:21:41;;;;;;;33.73;20.50;;;10.90;99.90;;;;;;6306710;22;20165;-77
2022/10/24 07:24:11;;;;;;;33.00;20.90;;;11.00;99.90;;;;;;6308122;22;20218;-79
2022/10/24 07:26:38;;;;;;;32.60;20.50;;;11.00;99.90;;;;;;6306609;22;20172;-76
2022/10/24 07:29:05;;;;;;;31.23;19.70;;;10.90;99.90;;;;;;6308450;22;20190;-77
2022/10/24 07:31:34;;;;;;;31.63;19.70;;;10.90;99.90;;;;;;6307063;22;20167;-80
2022/10/24 07:34:05;;;;;;;32.47;20.03;;;11.00;99.90;;;;;;6306055;22;20180;-80
2022/10/24 07:36:33;;;;;;;29.23;18.93;;;11.10;99.90;;;;;;6306854;22;20156;-77
2022/10/24 07:39:00;;;;;;;31.43;19.57;;;11.10;99.90;;;;;;6280894;22;20179;-78
2022/10/24 07:41:29;;;;;;;31.50;19.60;;;11.10;99.90;;;;;;6306853;22;20169;-80
2022/10/24 07:43:58;;;;;;;33.00;19.23;;;11.20;99.90;;;;;;6307857;22;20263;-76
2022/10/24 07:46:26;;;;;;;31.57;18.53;;;11.20;99.90;;;;;;6306861;22;20173;-84
2022/10/24 07:48:53;;;;;;;30.17;18.93;;;11.20;99.90;;;;;;6306839;22;20168;-88
2022/10/24 07:51:20;;;;;;;30.53;19.87;;;11.20;99.90;;;;;;6281593;22;20188;-87
2022/10/24 07:53:48;;;;;;;29.80;19.10;;;11.30;99.90;;;;;;6281833;22;20173;-88
2022/10/24 07:56:18;;;;;;;31.63;19.17;;;11.30;99.90;;;;;;6313030;22;20173;-87
2022/10/24 07:58:55;;;;;;;31.40;19.57;;;11.40;99.90;;;;;;6284969;22;20573;-86
2022/10/24 08:01:30;;;;;;;30.37;19.47;;;11.50;99.90;;;;;;6280788;22;20253;-82
2022/10/24 08:03:57;;;;;;;32.23;19.37;;;11.60;99.90;;;;;;6307773;22;20461;-91
2022/10/24 08:06:28;;;;;;;30.53;19.07;;;11.50;99.90;;;;;;6308124;22;20509;-88
2022/10/24 08:08:55;;;;;;;27.90;18.90;;;11.60;99.90;;;;;;6307806;22;20161;-83
2022/10/24 08:11:27;;;;;;;31.93;19.23;;;11.50;99.90;;;;;;6306811;22;20187;-88
2022/10/24 08:13:58;;;;;;;29.67;19.63;;;11.50;99.90;;;;;;6306704;22;20173;-81
2022/10/24 08:16:33;;;;;;;30.13;19.27;;;11.60;99.90;;;;;;6306228;22;20667;-84
2022/10/24 08:19:07;;;;;;;32.73;20.23;;;11.70;99.90;;;;;;6305859;22;20259;-80
2022/10/24 08:21:42;;;;;;;32.30;19.63;;;11.70;99.90;;;;;;6306199;22;20168;-81
2022/10/24 08:24:09;;;;;;;31.13;18.90;;;11.70;99.90;;;;;;6280320;22;20528;-82
2022/10/24 08:26:39;;;;;;;29.47;18.97;;;11.90;99.90;;;;;;6307540;22;20165;-80
2022/10/24 08:29:10;;;;;;;29.77;18.13;;;11.90;99.90;;;;;;6307637;22;20195;-76
2022/10/24 08:31:37;;;;;;;31.33;18.93;;;11.80;99.90;;;;;;6305772;22;20189;-75
2022/10/24 08:34:05;;;;;;;33.30;18.77;;;11.90;99.90;;;;;;6306211;22;20248;-76
2022/10/24 08:36:34;;;;;;;29.97;18.80;;;12.00;99.90;;;;;;6306225;22;20176;-80
2022/10/24 08:39:03;;;;;;;29.70;18.80;;;12.20;99.90;;;;;;6305578;22;20169;-78
2022/10/24 08:41:38;;;;;;;28.13;18.17;;;12.30;99.90;;;;;;6306472;22;20206;-78
2022/10/24 08:44:20;;;;;;;27.10;17.83;;;12.20;99.90;;;;;;6305877;22;20169;-82
2022/10/24 08:47:03;;;;;;;29.83;16.63;;;12.20;99.90;;;;;;6305852;22;20230;-81
2022/10/24 08:49:41;;;;;;;29.47;18.67;;;12.30;99.90;;;;;;6280407;22;20178;-81
2022/10/24 08:52:52;;;;;;;28.77;17.97;;;12.30;99.90;;;;;;6306073;22;20479;-76
2022/10/24 09:02:38;;;;;;;26.17;17.33;;;12.60;99.90;;;;;;6277816;22;20210;-80
2022/10/24 09:05:17;;;;;;;30.20;17.73;;;12.60;99.90;;;;;;6311286;22;20527;-79
2022/10/24 09:07:46;;;;;;;27.50;16.77;;;12.70;99.90;;;;;;6285147;22;20210;-79
2022/10/24 09:10:37;;;;;;;28.10;17.43;;;12.90;99.90;;;;;;6311675;22;20191;-82
2022/10/24 09:13:13;;;;;;;24.80;17.13;;;13.20;99.90;;;;;;6337253;22;20199;-81
2022/10/24 09:15:43;;;;;;;22.60;15.00;;;13.30;99.90;;;;;;6310803;22;20168;-81
2022/10/24 09:18:24;;;;;;;27.03;17.10;;;13.50;99.90;;;;;;6337641;22;20232;-80
2022/10/24 09:20:54;;;;;;;26.73;15.73;;;13.70;99.90;;;;;;6337229;22;20168;-82
2022/10/24 09:23:31;;;;;;;26.33;16.30;;;13.80;99.90;;;;;;6339142;22;20191;-76
2022/10/24 09:26:42;;;;;;;24.77;15.73;;;14.00;99.90;;;;;;6310555;22;20187;-82
2022/10/24 09:29:22;;;;;;;25.73;15.73;;;14.20;99.90;;;;;;6285718;22;20176;-81
2022/10/24 09:31:49;;;;;;;22.07;14.37;;;14.20;99.90;;;;;;6339045;22;20166;-81
2022/10/24 09:34:19;;;;;;;23.53;15.33;;;14.40;99.90;;;;;;6337415;22;20266;-82
2022/10/24 09:37:22;;;;;;;24.73;14.40;;;14.70;99.90;;;;;;6338588;22;20199;-78
2022/10/24 09:40:35;;;;;;;22.73;14.33;;;14.90;99.90;;;;;;6182145;23;20171;-84
2022/10/24 09:43:21;;;;;;;21.83;13.20;;;15.30;99.90;;;;;;6158463;23;20167;-82
2022/10/24 09:46:05;;;;;;;20.27;12.63;;;15.20;99.90;;;;;;6157792;23;20188;-83
2022/10/24 09:48:53;;;;;;;23.70;13.00;;;15.20;99.90;;;;;;6182921;23;20285;-81
2022/10/24 09:52:19;;;;;;;23.87;13.50;;;15.20;99.90;;;;;;6066831;23;20359;-81
2022/10/24 09:55:01;;;;;;;21.63;13.33;;;15.20;99.90;;;;;;6160000;23;20266;-78
2022/10/24 09:57:38;;;;;;;22.07;13.93;;;15.10;99.90;;;;;;6159612;23;20198;-81
2022/10/24 10:00:15;;;;;;;22.57;13.70;;;14.90;99.90;;;;;;6159218;23;20237;-78
2022/10/24 10:03:05;;;;;;;21.23;13.23;;;14.80;99.90;;;;;;6184208;23;20571;-78
2022/10/24 10:05:53;;;;;;;20.53;12.67;;;14.90;99.90;;;;;;6183967;23;20199;-80
2022/10/24 10:08:34;;;;;;;22.87;13.20;;;15.00;99.90;;;;;;6134647;23;20263;-80
2022/10/24 10:11:07;;;;;;;20.93;12.80;;;15.00;99.90;;;;;;6159301;23;20630;-81
2022/10/24 10:14:10;;;;;;;21.37;12.63;;;15.10;99.90;;;;;;6240202;22;20207;-81
2022/10/24 10:16:37;;;;;;;20.07;12.60;;;15.10;99.90;;;;;;6339934;22;20160;-84
2022/10/24 10:19:37;;;;;;;20.27;12.97;;;15.10;99.90;;;;;;6243894;23;20167;-84
2022/10/24 10:22:31;;;;;;;19.63;12.67;;;15.30;99.90;;;;;;6244802;23;20166;-87
2022/10/24 10:24:59;;;;;;;21.83;12.17;;;15.50;99.90;;;;;;6244261;23;20221;-81
2022/10/24 10:27:33;;;;;;;20.13;12.60;;;15.60;99.90;;;;;;6219853;22;20170;-83
2022/10/24 10:30:13;;;;;;;17.73;11.53;;;15.80;99.90;;;;;;6338409;22;20539;-81
2022/10/24 10:36:57;;;;;;;17.93;11.27;;;15.90;99.90;;;;;;6338260;22;20176;-80
2022/10/24 10:40:06;;;;;;;17.30;11.30;;;15.70;99.90;;;;;;6339644;22;20168;-82
2022/10/24 10:42:48;;;;;;;17.17;11.23;;;16.00;99.90;;;;;;6311926;22;20634;-80
2022/10/24 10:45:18;;;;;;;18.90;11.50;;;16.40;99.90;;;;;;6311676;22;20195;-81
2022/10/24 10:48:00;;;;;;;18.70;11.17;;;16.70;99.90;;;;;;6311976;22;20168;-78
2022/10/24 10:50:33;;;;;;;19.87;11.23;;;17.00;99.90;;;;;;6285872;22;20208;-81
2022/10/24 10:53:30;;;;;;;16.93;10.60;;;17.20;99.90;;;;;;6312832;22;20157;-84
2022/10/24 10:55:57;;;;;;;15.73;10.60;;;17.30;99.90;;;;;;6301286;22;20230;-81
2022/10/24 10:58:31;;;;;;;17.33;11.03;;;17.30;99.90;;;;;;6339597;22;20237;-84
2022/10/24 11:01:09;;;;;;;15.67;10.57;;;17.50;99.90;;;;;;6339244;22;20205;-81
2022/10/24 11:03:59;;;;;;;18.77;10.53;;;17.60;99.90;;;;;;6312073;22;20167;-83
2022/10/24 11:06:45;;;;;;;16.87;10.70;;;17.20;99.90;;;;;;6339910;22;20298;-82
2022/10/24 11:09:48;;;;;;;17.83;9.93;;;17.10;99.90;;;;;;6300390;22;20200;-78
2022/10/24 11:12:35;;;;;;;14.47;9.83;;;17.20;99.90;;;;;;6309598;22;20163;-84
2022/10/24 11:15:06;;;;;;;15.57;9.70;;;17.50;99.90;;;;;;6281594;22;20192;-80
2022/10/24 11:17:36;;;;;;;15.10;9.80;;;17.70;99.90;;;;;;6281778;22;20672;-81
2022/10/24 11:20:15;;;;;;;15.70;10.00;;;17.70;99.90;;;;;;6281287;22;20168;-79
2022/10/24 11:22:48;;;;;;;17.67;10.00;;;17.60;99.90;;;;;;6307014;22;20176;-82
2022/10/24 11:25:30;;;;;;;13.80;9.37;;;17.30;99.90;;;;;;6307036;22;20200;-80
2022/10/24 11:28:10;;;;;;;15.07;9.47;;;17.40;99.90;;;;;;6281134;22;20168;-82
2022/10/24 11:30:47;;;;;;;15.30;9.43;;;17.20;99.90;;;;;;6281233;22;20178;-80
2022/10/24 11:33:19;;;;;;;18.37;9.47;;;17.20;99.90;;;;;;6308968;22;20274;-80
2022/10/24 11:36:12;;;;;;;14.70;9.30;;;17.30;99.90;;;;;;6281655;22;20177;-82
2022/10/24 11:39:33;;;;;;;14.83;8.80;;;17.20;99.90;;;;;;6282280;22;20177;-77
2022/10/24 11:42:16;;;;;;;18.90;9.47;;;17.30;99.90;;;;;;6281715;22;20214;-79
2022/10/24 11:45:09;;;;;;;12.70;9.30;;;17.10;99.90;;;;;;6281932;22;20259;-80
2022/10/24 11:48:05;;;;;;;17.27;9.57;;;17.20;99.90;;;;;;6282645;22;20161;-82
2022/10/24 11:55:37;;;;;;;12.83;8.40;;;17.90;99.90;;;;;;6330840;22;20281;-84
2022/10/24 12:01:51;;;;;;;18.60;8.93;;;18.40;99.90;;;;;;6305951;22;20213;-80
2022/10/24 12:11:30;;;;;;;14.27;8.10;;;20.70;99.90;;;;;;6268209;22;21380;-82
2022/10/24 12:14:17;;;;;;;12.23;7.83;;;21.70;99.90;;;;;;6307984;22;20156;-78
2022/10/24 12:17:22;;;;;;;11.87;7.13;;;22.30;99.90;;;;;;6280481;22;20168;-78
2022/10/24 12:19:50;;;;;;;10.57;7.10;;;22.60;99.90;;;;;;6280162;22;20602;-81
2022/10/24 12:25:50;;;;;;;12.60;7.63;;;24.10;99.90;;;;;;6306797;22;20224;-83
2022/10/24 12:28:24;;;;;;;13.60;7.97;;;24.70;99.90;;;;;;6180677;23;20175;-80
2022/10/24 12:31:28;;;;;;;10.35;7.00;;;25.50;99.90;;;;;;6159102;23;20637;-81
2022/10/24 12:34:21;;;;;;;12.65;6.22;;;26.30;99.90;;;;;;6041619;23;20170;-82
2022/10/24 12:37:08;;;;;;;11.40;6.80;;;26.20;99.90;;;;;;6065318;23;20261;-82
2022/10/24 12:39:43;;;;;;;10.98;7.20;;;25.90;99.90;;;;;;6065187;23;20616;-82
2022/10/24 12:42:36;;;;;;;8.90;6.65;;;25.50;99.90;;;;;;6040556;23;20290;-85
2022/10/24 13:08:51;;;;;;;13.13;7.30;;;21.40;99.90;;;;;;6307390;22;20231;-78
2022/10/24 13:11:52;;;;;;;9.70;6.07;;;21.60;99.90;;;;;;6279684;22;20172;-77
2022/10/24 13:22:56;;;;;;;10.20;6.37;;;21.50;99.90;;;;;;6280488;22;20178;-77
2022/10/24 13:28:34;;;;;;;;;;;;;;;;;;;;;
2022/10/24 13:36:43;;;;;;;9.80;6.37;;;20.70;99.90;;;;;;6282026;22;20169;-77
2022/10/24 13:39:26;;;;;;;10.07;6.33;;;20.80;99.90;;;;;;6235298;22;20172;-79
2022/10/24 13:45:51;;;;;;;10.53;6.50;;;20.60;99.90;;;;;;6302282;22;20654;-83
2022/10/24 13:48:20;;;;;;;8.80;5.97;;;20.50;99.90;;;;;;6282740;22;20602;-76
2022/10/24 13:50:52;;;;;;;9.37;6.47;;;20.00;99.90;;;;;;6282879;22;20195;-80
2022/10/24 13:53:46;;;;;;;8.97;6.27;;;19.90;99.90;;;;;;6280573;22;20216;-79
2022/10/24 13:56:26;;;;;;;10.83;6.80;;;19.30;99.90;;;;;;6162309;23;20243;-78
2022/10/24 13:58:53;;;;;;;9.97;6.60;;;19.40;99.90;;;;;;6160064;23;20175;-78
2022/10/24 14:01:43;;;;;;;13.27;6.77;;;19.30;99.90;;;;;;6160223;23;20618;-79
2022/10/24 14:04:10;;;;;;;11.43;6.70;;;19.30;99.90;;;;;;6159716;23;20163;-77
2022/10/24 14:06:37;;;;;;;11.97;7.30;;;19.30;99.90;;;;;;6134172;23;20314;-79
2022/10/24 14:09:09;;;;;;;9.33;6.30;;;19.20;99.90;;;;;;6135638;23;20198;-79
2022/10/24 14:11:41;;;;;;;10.00;6.80;;;19.10;99.90;;;;;;6160008;23;20202;-79
2022/10/24 14:14:29;;;;;;;9.77;6.77;;;19.00;99.90;;;;;;6159533;23;20178;-77
2022/10/24 14:17:32;;;;;;;11.73;6.60;;;18.90;99.90;;;;;;6184409;23;20179;-79
2022/10/24 14:20:17;;;;;;;10.47;6.67;;;18.70;99.90;;;;;;6100880;23;20587;-82
2022/10/24 14:22:45;;;;;;;10.03;6.90;;;18.60;99.90;;;;;;6100635;23;20553;-76
2022/10/24 14:25:30;;;;;;;12.40;6.97;;;18.60;99.90;;;;;;6100069;23;20185;-81
2022/10/24 14:28:00;;;;;;;12.53;7.47;;;18.50;99.90;;;;;;6100401;23;20220;-79
2022/10/24 14:30:30;;;;;;;12.90;7.23;;;18.40;99.90;;;;;;6100607;23;20263;-77
2022/10/24 14:33:22;;;;;;;10.30;7.07;;;18.20;99.90;;;;;;6136863;23;20180;-76
2022/10/24 14:35:51;;;;;;;13.77;7.40;;;18.00;99.90;;;;;;6128953;23;20367;-75
2022/10/24 14:38:24;;;;;;;13.10;7.27;;;17.90;99.90;;;;;;6159321;23;20176;-75
2022/10/24 14:40:52;;;;;;;9.27;6.60;;;17.70;99.90;;;;;;6184157;23;20171;-71
2022/10/24 14:43:32;;;;;;;13.17;7.33;;;17.70;99.90;;;;;;6158994;23;20253;-76
2022/10/24 14:46:08;;;;;;;12.13;7.10;;;17.50;99.90;;;;;;6159072;23;20201;-78
2022/10/24 14:48:36;;;;;;;11.23;7.43;;;17.40;99.90;;;;;;6183961;23;20644;-78
2022/10/24 14:51:20;;;;;;;10.80;7.30;;;17.30;99.90;;;;;;6159233;23;20176;-76
2022/10/24 14:53:49;;;;;;;11.53;7.13;;;17.10;99.90;;;;;;6183251;23;20202;-85
2022/10/24 14:56:24;;;;;;;15.53;7.50;;;17.10;99.90;;;;;;6250507;22;20615;-75
2022/10/24 14:58:53;;;;;;;12.17;7.20;;;17.00;99.90;;;;;;6308616;22;20479;-77
2022/10/24 15:01:22;;;;;;;14.20;7.80;;;16.90;99.90;;;;;;6306646;22;20189;-76
2022/10/24 15:03:54;;;;;;;13.20;7.83;;;16.80;99.90;;;;;;6306948;22;20173;-74
2022/10/24 15:06:57;;;;;;;14.90;7.93;;;16.70;99.90;;;;;;6308344;22;20189;-75
2022/10/24 15:09:25;;;;;;;10.80;7.73;;;16.60;99.90;;;;;;6248958;22;20216;-75
2022/10/24 15:12:00;;;;;;;15.20;7.70;;;16.50;99.90;;;;;;6248424;22;20611;-76
2022/10/24 15:14:34;;;;;;;12.30;7.60;;;16.40;99.90;;;;;;6247914;22;20268;-73
2022/10/24 15:17:16;;;;;;;12.07;7.50;;;16.30;99.90;;;;;;6248763;22;20624;-75
2022/10/24 15:19:44;;;;;;;17.13;9.93;;;16.30;99.90;;;;;;6248105;22;20170;-75
2022/10/24 15:22:34;;;;;;;14.97;8.00;;;16.20;99.90;;;;;;6274447;22;20268;-76
2022/10/24 15:25:17;;;;;;;12.77;7.40;;;16.10;99.90;;;;;;6248372;22;20174;-76
2022/10/24 15:27:44;;;;;;;13.23;8.03;;;16.00;99.90;;;;;;6273883;22;20174;-77
2022/10/24 15:30:18;;;;;;;13.60;7.97;;;15.90;99.90;;;;;;6248838;22;20169;-76
2022/10/24 15:32:47;;;;;;;12.37;8.10;;;15.90;99.90;;;;;;6274740;22;20174;-77
2022/10/24 15:35:15;;;;;;;16.30;8.20;;;15.80;99.90;;;;;;6248388;22;20546;-76
2022/10/24 15:38:01;;;;;;;13.53;8.37;;;15.70;99.90;;;;;;6248253;22;20177;-71
2022/10/24 15:40:34;;;;;;;14.93;8.43;;;15.70;99.90;;;;;;6298848;22;20183;-77
2022/10/24 15:43:02;;;;;;;14.33;8.20;;;15.60;99.90;;;;;;6306133;22;20203;-75
2022/10/24 15:45:28;;;;;;;14.23;8.33;;;15.60;99.90;;;;;;6306213;22;20172;-76
2022/10/24 15:47:55;;;;;;;14.27;8.30;;;15.50;99.90;;;;;;6305753;22;20176;-78
2022/10/24 15:50:23;;;;;;;14.53;7.90;;;15.50;99.90;;;;;;6305105;22;20199;-75
2022/10/24 15:52:53;;;;;;;14.07;8.13;;;15.50;99.90;;;;;;6304011;22;20342;-76